Time;durP1;ratioP1;P1;durP2;ratioP2;P2;SDS_P1;SDS_P2;PMS_P1;PMS_P2;Temp;Humidity;BMP_temperature;BMP_pressure;BME280_temperature;BME280_humidity;BME280_pressure;Samples;Min_cycle;Max_cycle;Signal;HPM_P1;HPM_P2
2024/04/05 00:01:19;;;;;;;1.83;1.40;;;;;;;12.40;100.00;98113.00;5055708;28;20796;-78
2024/04/05 00:03:45;;;;;;;2.00;1.20;;;;;;;12.42;100.00;98111.06;5073704;28;20207;-77
2024/04/05 00:06:11;;;;;;;2.07;1.30;;;;;;;12.44;100.00;98109.13;5075025;28;20218;-78
2024/04/05 00:08:37;;;;;;;2.40;1.20;;;;;;;12.41;100.00;98102.25;5075250;28;20231;-78
2024/04/05 00:11:05;;;;;;;2.87;1.30;;;;;;;12.42;100.00;98105.75;5074554;28;20263;-78
2024/04/05 00:13:31;;;;;;;2.70;1.37;;;;;;;12.40;100.00;98102.41;5075006;28;20573;-78
2024/04/05 00:15:58;;;;;;;3.10;1.43;;;;;;;12.38;100.00;98099.00;5074398;28;20244;-78
2024/04/05 00:18:24;;;;;;;1.63;1.40;;;;;;;12.39;100.00;98095.38;5074831;28;20215;-78
2024/04/05 00:20:52;;;;;;;2.80;1.40;;;;;;;12.40;100.00;98097.09;5072849;28;20244;-77
2024/04/05 00:23:17;;;;;;;2.33;1.27;;;;;;;12.43;100.00;98096.84;5075238;28;20580;-78
2024/04/05 00:25:44;;;;;;;3.57;1.17;;;;;;;12.45;100.00;98095.75;5077834;28;20298;-78
2024/04/05 00:28:11;;;;;;;2.07;1.50;;;;;;;12.46;100.00;98101.94;5077250;28;20867;-78
2024/04/05 00:30:38;;;;;;;2.50;1.30;;;;;;;12.53;100.00;98108.44;5077478;28;20783;-78
2024/04/05 00:33:04;;;;;;;4.43;1.47;;;;;;;12.59;100.00;98126.53;5077572;28;20429;-78
2024/04/05 00:35:30;;;;;;;1.93;1.23;;;;;;;12.62;100.00;98113.00;5077081;28;20709;-78
2024/04/05 00:37:56;;;;;;;2.97;1.27;;;;;;;12.66;100.00;98101.22;5076404;28;20207;-78
2024/04/05 00:40:26;;;;;;;2.57;1.20;;;;;;;12.66;100.00;98099.38;5076079;28;20226;-78
2024/04/05 00:42:52;;;;;;;2.63;1.40;;;;;;;12.60;100.00;98093.75;5075747;28;20211;-78
2024/04/05 00:45:20;;;;;;;2.57;1.23;;;;;;;12.58;100.00;98090.34;5075595;28;20847;-78
2024/04/05 00:47:45;;;;;;;1.80;1.20;;;;;;;12.58;100.00;98090.34;5076318;28;20204;-78
2024/04/05 00:50:12;;;;;;;2.60;1.20;;;;;;;12.56;100.00;98076.38;5075696;28;20242;-78
2024/04/05 00:52:37;;;;;;;2.97;1.17;;;;;;;12.55;100.00;98074.69;5075109;28;20216;-78
2024/04/05 00:55:05;;;;;;;3.93;1.43;;;;;;;12.56;100.00;98081.66;5075235;28;20717;-78
2024/04/05 00:57:30;;;;;;;1.67;1.20;;;;;;;12.56;100.00;98081.66;5075280;28;20234;-78
2024/04/05 00:59:57;;;;;;;1.53;1.00;;;;;;;12.54;100.00;98078.31;5074824;28;20231;-78
2024/04/05 01:02:24;;;;;;;2.50;1.27;;;;;;;12.53;100.00;98085.41;5076562;28;20213;-78
2024/04/05 01:04:50;;;;;;;1.47;1.23;;;;;;;12.53;100.00;98076.63;5075889;28;20301;-78
2024/04/05 01:07:16;;;;;;;3.23;1.30;;;;;;;12.50;100.00;98076.84;5075282;28;20214;-78
2024/04/05 01:09:42;;;;;;;3.10;1.50;;;;;;;12.45;100.00;98071.91;5074923;28;20228;-78
2024/04/05 01:12:08;;;;;;;1.80;1.40;;;;;;;12.44;100.00;98072.88;5074654;28;20238;-78
2024/04/05 01:14:35;;;;;;;1.30;1.10;;;;;;;12.42;100.00;98077.44;5075780;28;20576;-78
2024/04/05 01:17:00;;;;;;;2.90;1.40;;;;;;;12.40;100.00;98081.19;5075494;28;20592;-78
2024/04/05 01:19:31;;;;;;;2.27;1.23;;;;;;;12.41;100.00;98072.28;5074434;28;20229;-78
2024/04/05 01:21:59;;;;;;;2.07;1.20;;;;;;;12.40;100.00;98075.88;5074763;28;20221;-78
2024/04/05 01:24:27;;;;;;;2.13;1.20;;;;;;;12.40;100.00;98078.53;5075728;28;20218;-77
2024/04/05 01:26:53;;;;;;;1.87;1.20;;;;;;;12.38;100.00;98077.78;5075074;28;20243;-77
2024/04/05 01:29:19;;;;;;;2.97;1.50;;;;;;;12.39;100.00;98080.34;5074709;28;20579;-77
2024/04/05 01:31:45;;;;;;;1.90;1.27;;;;;;;12.39;100.00;98077.69;5074538;28;20233;-77
2024/04/05 01:34:11;;;;;;;1.70;1.20;;;;;;;12.41;100.00;98077.56;5075132;28;20218;-77
2024/04/05 01:36:37;;;;;;;3.50;1.40;;;;;;;12.45;100.00;98071.91;5074331;28;20208;-77
2024/04/05 01:39:03;;;;;;;2.43;1.40;;;;;;;12.46;100.00;98073.59;5074205;28;20219;-77
2024/04/05 01:41:33;;;;;;;2.57;1.50;;;;;;;12.49;100.00;98080.47;5074227;28;20236;-77
2024/04/05 01:43:59;;;;;;;1.60;1.23;;;;;;;12.48;100.00;98068.19;5074864;28;20620;-77
2024/04/05 01:46:25;;;;;;;2.23;1.50;;;;;;;12.49;100.00;98072.50;5076627;28;20217;-77
2024/04/05 01:48:51;;;;;;;2.97;1.53;;;;;;;12.46;100.00;98067.47;5076953;28;20209;-77
2024/04/05 01:51:17;;;;;;;2.60;1.70;;;;;;;12.45;100.00;98068.41;5077115;28;20238;-77
2024/04/05 01:53:43;;;;;;;2.70;1.60;;;;;;;12.43;100.00;98065.03;5076451;28;20205;-77
2024/04/05 01:56:09;;;;;;;2.23;1.40;;;;;;;12.43;100.00;98070.34;5073971;28;20586;-77
2024/04/05 01:58:37;;;;;;;3.53;1.57;;;;;;;12.41;100.00;98061.66;5074062;28;20222;-78
2024/04/05 02:01:03;;;;;;;2.10;1.53;;;;;;;12.42;100.00;98068.66;5073662;28;20231;-78
2024/04/05 02:03:30;;;;;;;3.43;1.50;;;;;;;12.42;100.00;98058.06;5073626;28;20207;-77
2024/04/05 02:05:58;;;;;;;3.30;1.80;;;;;;;12.42;100.00;98058.06;5073835;28;20562;-77
2024/04/05 02:08:25;;;;;;;3.80;1.70;;;;;;;12.41;100.00;98053.72;5073920;28;20308;-77
2024/04/05 02:10:50;;;;;;;2.73;1.53;;;;;;;12.36;100.00;98061.19;5073163;28;20242;-77
2024/04/05 02:13:17;;;;;;;2.90;1.63;;;;;;;12.30;100.00;98057.19;5073646;28;20207;-77
2024/04/05 02:15:45;;;;;;;2.07;1.57;;;;;;;12.26;100.00;98057.53;5073312;28;20291;-77
2024/04/05 02:18:12;;;;;;;3.00;1.70;;;;;;;12.22;100.00;98048.16;5073698;28;20234;-77
2024/04/05 02:20:40;;;;;;;3.40;1.87;;;;;;;12.21;100.00;98049.09;5072662;28;20231;-77
2024/04/05 02:23:07;;;;;;;3.90;1.97;;;;;;;12.21;100.00;98044.66;5073258;28;20207;-77
2024/04/05 02:25:32;;;;;;;2.27;1.80;;;;;;;12.18;100.00;98049.34;5073515;28;20227;-77
2024/04/05 02:27:59;;;;;;;4.03;2.13;;;;;;;12.19;100.00;98051.03;5073479;28;20215;-77
2024/04/05 02:30:24;;;;;;;2.43;1.80;;;;;;;12.22;100.00;98061.41;5072738;28;20717;-77
2024/04/05 02:32:52;;;;;;;4.40;2.20;;;;;;;12.25;100.00;98063.81;5073501;28;20245;-77
2024/04/05 02:35:18;;;;;;;3.70;2.00;;;;;;;12.35;100.00;98062.97;5073103;28;20230;-77
2024/04/05 02:37:44;;;;;;;5.00;2.03;;;;;;;12.30;100.00;98053.69;5072774;28;20209;-77
2024/04/05 02:40:10;;;;;;;2.73;1.80;;;;;;;12.27;100.00;98057.44;5072947;28;20227;-77
2024/04/05 02:42:36;;;;;;;4.27;2.37;;;;;;;12.26;100.00;98057.53;5073056;28;20204;-77
2024/04/05 02:45:02;;;;;;;3.33;2.07;;;;;;;12.27;100.00;98064.50;5072528;28;20207;-77
2024/04/05 02:47:30;;;;;;;4.70;2.10;;;;;;;12.29;100.00;98062.63;5073437;28;20578;-77
2024/04/05 02:49:57;;;;;;;4.13;2.17;;;;;;;12.33;100.00;98066.69;5072585;28;20691;-77
2024/04/05 02:52:23;;;;;;;2.43;1.80;;;;;;;12.32;100.00;98063.22;5073240;28;20607;-77
2024/04/05 02:54:49;;;;;;;2.43;2.10;;;;;;;12.34;100.00;98060.47;5072964;28;20586;-77
2024/04/05 02:57:15;;;;;;;3.73;2.13;;;;;;;12.27;100.00;98057.44;5073194;28;20206;-77
2024/04/05 02:59:41;;;;;;;3.47;2.10;;;;;;;12.21;100.00;98063.19;5073550;28;20706;-77
2024/04/05 03:02:07;;;;;;;3.23;2.00;;;;;;;12.18;100.00;98065.25;5072067;28;20210;-78
2024/04/05 03:04:33;;;;;;;2.73;1.90;;;;;;;12.14;100.00;98069.06;5071412;28;20219;-77
2024/04/05 03:07:01;;;;;;;4.10;1.93;;;;;;;12.11;100.00;98074.63;5073363;28;20742;-78
2024/04/05 03:09:26;;;;;;;2.47;1.87;;;;;;;12.07;100.00;98073.16;5071689;28;20227;-78
2024/04/05 03:11:53;;;;;;;4.10;2.20;;;;;;;12.08;100.00;98074.84;5073496;28;20544;-79
2024/04/05 03:14:19;;;;;;;2.57;1.90;;;;;;;12.05;100.00;98070.63;5071533;28;20211;-77
2024/04/05 03:16:45;;;;;;;5.50;2.40;;;;;;;12.06;100.00;98071.47;5071116;28;20207;-77
2024/04/05 03:19:11;;;;;;;3.43;2.40;;;;;;;12.06;100.00;98082.06;5071001;28;20214;-77
2024/04/05 03:21:37;;;;;;;3.27;2.57;;;;;;;12.09;100.00;98087.13;5072484;28;20215;-77
2024/04/05 03:24:05;;;;;;;4.30;2.37;;;;;;;12.06;100.00;98082.94;5072953;28;20211;-77
2024/04/05 03:26:33;;;;;;;3.03;2.17;;;;;;;12.10;100.00;98084.34;5072945;28;20227;-78
2024/04/05 03:28:58;;;;;;;4.70;2.40;;;;;;;12.15;100.00;98081.34;5071009;28;20207;-77
2024/04/05 03:31:25;;;;;;;5.20;2.87;;;;;;;12.15;100.00;98082.22;5070825;28;20288;-77
2024/04/05 03:33:50;;;;;;;4.47;2.50;;;;;;;12.14;100.00;98075.22;5073126;28;20329;-77
2024/04/05 03:36:16;;;;;;;4.23;2.37;;;;;;;12.16;100.00;98081.25;5073255;28;20256;-77
2024/04/05 03:38:43;;;;;;;3.37;2.60;;;;;;;12.16;100.00;98073.28;5072727;28;20230;-77
2024/04/05 03:41:11;;;;;;;5.03;2.97;;;;;;;12.17;100.00;98076.81;5073097;28;20229;-77
2024/04/05 03:43:37;;;;;;;4.53;2.80;;;;;;;12.12;100.00;98071.00;5072666;28;20210;-77
2024/04/05 03:46:03;;;;;;;4.50;2.73;;;;;;;12.07;100.00;98074.00;5072626;28;20207;-77
2024/04/05 03:48:29;;;;;;;3.63;2.53;;;;;;;12.05;100.00;98069.78;5072904;28;20230;-77
2024/04/05 03:50:55;;;;;;;5.90;2.70;;;;;;;11.97;100.00;98061.56;5072460;28;20231;-77
2024/04/05 03:53:21;;;;;;;5.27;2.57;;;;;;;11.93;100.00;98060.13;5072764;28;20207;-77
2024/04/05 03:55:47;;;;;;;5.47;2.67;;;;;;;11.85;100.00;98057.19;5074564;28;20217;-77
2024/04/05 03:58:15;;;;;;;3.83;2.20;;;;;;;11.75;100.00;98051.75;5076696;28;20306;-77
2024/04/05 04:00:41;;;;;;;3.40;2.43;;;;;;;11.66;100.00;98051.59;5076593;28;20247;-77
2024/04/05 04:03:07;;;;;;;4.17;2.37;;;;;;;11.61;100.00;98053.75;5076302;28;20214;-77
2024/04/05 04:05:33;;;;;;;2.10;1.87;;;;;;;11.59;100.00;98066.25;5077599;28;20674;-77
2024/04/05 04:08:00;;;;;;;3.43;2.10;;;;;;;11.55;100.00;98065.59;5077963;28;20218;-77
2024/04/05 04:10:28;;;;;;;3.77;2.37;;;;;;;11.57;100.00;98073.44;5076594;28;20779;-77
2024/04/05 04:12:54;;;;;;;4.27;2.17;;;;;;;11.61;100.00;98080.22;5075817;28;20302;-77
2024/04/05 04:15:21;;;;;;;3.10;2.20;;;;;;;11.61;100.00;98074.94;5075307;28;20681;-77
2024/04/05 04:17:48;;;;;;;2.70;2.30;;;;;;;11.65;100.00;98071.09;5075881;28;20217;-78
2024/04/05 04:20:13;;;;;;;4.03;2.60;;;;;;;11.61;100.00;98070.47;5073778;28;20231;-77
2024/04/05 04:22:40;;;;;;;2.83;2.33;;;;;;;11.60;100.00;98078.50;5074449;28;20607;-79
2024/04/05 04:25:06;;;;;;;5.93;2.80;;;;;;;11.59;100.00;98067.09;5076477;28;20207;-79
2024/04/05 04:27:33;;;;;;;3.13;2.30;;;;;;;11.57;100.00;98068.13;5075038;28;20220;-78
2024/04/05 04:29:58;;;;;;;4.23;2.97;;;;;;;11.59;100.00;98067.09;5076132;28;20223;-78
2024/04/05 04:32:27;;;;;;;4.43;3.17;;;;;;;11.56;100.00;98067.28;5074246;28;20231;-79
2024/04/05 04:34:52;;;;;;;5.67;3.00;;;;;;;11.58;100.00;98076.00;5074710;28;20210;-79
2024/04/05 04:37:24;;;;;;;5.50;3.67;;;;;;;11.60;100.00;98078.50;5076116;28;20207;-79
2024/04/05 04:39:50;;;;;;;4.23;2.80;;;;;;;11.55;100.00;98065.59;5077035;28;20284;-79
2024/04/05 04:42:17;;;;;;;5.40;3.20;;;;;;;11.55;100.00;98059.47;5074947;28;20650;-79
2024/04/05 04:44:42;;;;;;;5.00;3.67;;;;;;;11.51;100.00;98065.94;5074003;28;20214;-77
2024/04/05 04:47:09;;;;;;;5.57;3.23;;;;;;;11.51;100.00;98068.59;5073957;28;20211;-78
2024/04/05 04:49:36;;;;;;;5.87;3.07;;;;;;;11.48;100.00;98063.50;5074873;28;20326;-77
2024/04/05 04:52:04;;;;;;;4.37;3.30;;;;;;;11.46;100.00;98066.28;5074542;28;20318;-78
2024/04/05 04:54:29;;;;;;;4.97;3.37;;;;;;;11.45;100.00;98063.75;5073739;28;20203;-78
2024/04/05 04:56:56;;;;;;;5.43;2.90;;;;;;;11.41;100.00;98067.56;5073627;28;20646;-77
2024/04/05 04:59:28;;;;;;;5.23;3.47;;;;;;;11.39;100.00;98074.78;5074610;28;20221;-77
2024/04/05 05:01:54;;;;;;;5.53;3.40;;;;;;;11.39;100.00;98074.78;5074786;28;20299;-77
2024/04/05 05:04:20;;;;;;;5.13;3.17;;;;;;;11.39;100.00;98069.50;5075340;28;20207;-78
2024/04/05 05:06:48;;;;;;;7.27;3.00;;;;;;;11.38;100.00;98073.94;5074069;28;20229;-77
2024/04/05 05:09:15;;;;;;;5.10;3.30;;;;;;;11.35;100.00;98073.31;5074459;28;20212;-77
2024/04/05 05:11:42;;;;;;;4.97;3.17;;;;;;;11.30;100.00;98068.34;5056909;28;20235;-77
2024/04/05 05:14:07;;;;;;;4.63;3.10;;;;;;;11.29;100.00;98068.47;5074790;28;20211;-77
2024/04/05 05:16:34;;;;;;;5.10;3.53;;;;;;;11.25;100.00;98073.13;5074567;28;20211;-77
2024/04/05 05:18:59;;;;;;;5.67;3.00;;;;;;;11.23;100.00;98076.84;5077626;28;20208;-78
2024/04/05 05:21:26;;;;;;;4.77;2.90;;;;;;;11.19;100.00;98081.50;5080172;28;20257;-78
2024/04/05 05:23:53;;;;;;;5.43;3.43;;;;;;;11.20;100.00;98082.38;5080134;28;20212;-78
2024/04/05 05:26:19;;;;;;;4.73;3.03;;;;;;;11.16;100.00;98088.84;5080327;28;20299;-78
2024/04/05 05:28:45;;;;;;;5.27;3.43;;;;;;;11.10;100.00;98083.97;5080115;28;20221;-78
2024/04/05 05:31:12;;;;;;;4.90;3.27;;;;;;;11.04;100.00;98081.78;5078933;28;20271;-78
2024/04/05 05:33:37;;;;;;;3.70;3.30;;;;;;;10.99;100.00;98076.81;5075433;28;20294;-77
2024/04/05 05:36:05;;;;;;;4.50;3.33;;;;;;;10.96;100.00;98078.84;5074624;28;20246;-78
2024/04/05 05:38:30;;;;;;;4.30;3.57;;;;;;;10.95;100.00;98071.88;5074587;28;20214;-77
2024/04/05 05:40:58;;;;;;;4.30;3.23;;;;;;;10.94;100.00;98075.47;5074107;28;20231;-78
2024/04/05 05:43:24;;;;;;;5.27;3.17;;;;;;;10.85;100.00;98070.81;5074153;28;20257;-78
2024/04/05 05:45:50;;;;;;;4.73;3.03;;;;;;;10.86;100.00;98070.72;5074487;28;20207;-78
2024/04/05 05:48:16;;;;;;;4.57;3.10;;;;;;;10.86;100.00;98067.22;5074528;28;20603;-78
2024/04/05 05:50:43;;;;;;;4.70;3.13;;;;;;;10.93;100.00;98060.53;5073540;28;20241;-77
2024/04/05 05:53:08;;;;;;;6.77;3.40;;;;;;;11.06;100.00;98056.09;5074204;28;20246;-77
2024/04/05 05:55:35;;;;;;;5.53;3.60;;;;;;;11.11;100.00;98054.78;5073564;28;20211;-77
2024/04/05 05:58:02;;;;;;;5.03;3.60;;;;;;;11.17;100.00;98058.78;5073720;28;20296;-77
2024/04/05 06:00:30;;;;;;;7.97;3.73;;;;;;;11.26;100.00;98060.75;5073451;28;20231;-77
2024/04/05 06:02:56;;;;;;;5.07;3.60;;;;;;;11.35;100.00;98049.50;5056044;28;20214;-78
2024/04/05 06:05:23;;;;;;;6.90;3.83;;;;;;;11.41;100.00;98047.25;5073934;28;20215;-77
2024/04/05 06:07:50;;;;;;;7.57;3.97;;;;;;;11.48;100.00;98055.56;5071687;28;20211;-77
2024/04/05 06:10:17;;;;;;;4.30;3.23;;;;;;;11.58;100.00;98059.22;5071719;28;20235;-77
2024/04/05 06:12:43;;;;;;;8.37;4.23;;;;;;;11.66;100.00;98062.19;5072488;28;20701;-77
2024/04/05 06:15:11;;;;;;;5.80;3.93;;;;;;;11.73;100.00;98058.97;5073952;28;20219;-79
2024/04/05 06:17:36;;;;;;;5.77;4.00;;;;;;;11.85;100.00;98073.06;5073589;28;20207;-77
2024/04/05 06:20:06;;;;;;;5.50;3.57;;;;;;;11.93;100.00;98070.72;5074479;28;20234;-78
2024/04/05 06:22:33;;;;;;;4.63;3.00;;;;;;;11.97;100.00;98069.50;5073628;28;20295;-77
2024/04/05 06:25:00;;;;;;;4.80;3.37;;;;;;;12.09;100.00;98073.88;5072333;28;20210;-77
2024/04/05 06:27:26;;;;;;;6.80;3.43;;;;;;;12.15;100.00;98071.63;5072936;28;20241;-77
2024/04/05 06:29:55;;;;;;;6.33;3.10;;;;;;;12.23;100.00;98066.56;5072076;28;20239;-77
2024/04/05 06:32:23;;;;;;;5.27;3.00;;;;;;;12.36;100.00;98079.72;5072040;28;20243;-77
2024/04/05 06:34:51;;;;;;;5.43;3.10;;;;;;;12.46;100.00;98081.53;5072439;28;20294;-77
2024/04/05 06:37:17;;;;;;;6.03;3.40;;;;;;;12.57;100.00;98080.69;5072483;28;20221;-77
2024/04/05 06:39:43;;;;;;;4.90;2.90;;;;;;;12.70;100.00;98073.47;5072050;28;20277;-78
2024/04/05 06:42:10;;;;;;;5.30;2.80;;;;;;;12.85;100.00;98074.94;5073022;28;20645;-78
2024/04/05 06:44:39;;;;;;;4.47;2.67;;;;;;;13.00;100.00;98071.06;5074960;28;20306;-78
2024/04/05 06:47:05;;;;;;;5.67;2.70;;;;;;;13.14;100.00;98066.34;5074241;28;20219;-78
2024/04/05 06:49:33;;;;;;;6.17;3.10;;;;;;;13.32;100.00;98066.72;5075841;28;20352;-78
2024/04/05 06:52:00;;;;;;;6.13;2.57;;;;;;;13.56;100.00;98062.06;5076392;28;20248;-80
2024/04/05 06:54:27;;;;;;;4.13;2.30;;;;;;;13.80;100.00;98057.34;5075423;28;20211;-78
2024/04/05 06:56:53;;;;;;;5.50;2.20;;;;;;;14.01;100.00;98051.09;5077256;28;20239;-77
2024/04/05 06:59:19;;;;;;;3.17;1.80;;;;;;;14.25;100.00;98049.03;5073309;28;20212;-77
2024/04/05 07:01:45;;;;;;;2.30;1.80;;;;;;;14.40;100.00;98046.88;5074536;28;20264;-78
2024/04/05 07:04:12;;;;;;;5.43;2.00;;;;;;;14.52;100.00;98043.16;5075119;28;20306;-79
2024/04/05 07:06:39;;;;;;;4.20;2.07;;;;;;;14.58;100.00;98042.63;5081386;28;20209;-78
2024/04/05 07:09:08;;;;;;;2.80;1.90;;;;;;;14.67;100.00;98044.50;5082419;28;20233;-84
2024/04/05 07:11:35;;;;;;;3.03;2.10;;;;;;;14.78;100.00;98036.44;5079549;28;20277;-78
2024/04/05 07:14:02;;;;;;;2.47;2.00;;;;;;;14.92;100.00;98017.44;5076527;28;20268;-83
2024/04/05 07:16:27;;;;;;;3.00;1.67;;;;;;;15.08;100.00;98028.41;5078657;28;20206;-78
2024/04/05 07:18:54;;;;;;;2.30;1.63;;;;;;;15.16;100.00;98025.91;5079826;28;20217;-79
2024/04/05 07:21:19;;;;;;;2.50;1.67;;;;;;;15.14;100.00;98023.38;5079552;28;20648;-82
2024/04/05 07:23:49;;;;;;;2.63;1.60;;;;;;;15.19;100.00;98025.63;5077974;28;20206;-80
2024/04/05 07:26:14;;;;;;;2.77;1.80;;;;;;;15.26;100.00;98032.94;5078097;28;20218;-80
2024/04/05 07:28:41;;;;;;;4.73;1.80;;;;;;;15.31;100.00;98035.19;5080443;28;20260;-80
2024/04/05 07:31:06;;;;;;;4.27;1.57;;;;;;;15.44;100.00;98031.31;5077723;28;20231;-76
2024/04/05 07:33:33;;;;;;;3.53;1.80;;;;;;;15.65;100.00;98028.53;5075765;28;20564;-77
2024/04/05 07:35:58;;;;;;;2.17;1.60;;;;;;;15.83;100.00;98026.84;5076471;28;20214;-82
2024/04/05 07:38:26;;;;;;;3.23;1.83;;;;;;;15.98;100.00;98024.44;5083157;28;20574;-79
2024/04/05 07:41:02;;;;;;;2.23;1.80;;;;;;;16.09;100.00;98016.28;5084675;28;20253;-79
2024/04/05 07:43:29;;;;;;;5.63;1.83;;;;;;;16.12;100.00;98009.00;5084290;28;20214;-79
2024/04/05 07:45:56;;;;;;;2.53;1.40;;;;;;;16.12;100.00;97990.34;5083583;28;20211;-79
2024/04/05 07:48:22;;;;;;;3.23;1.70;;;;;;;16.06;100.00;97998.91;5078873;28;20242;-77
2024/04/05 07:50:48;;;;;;;3.10;1.70;;;;;;;16.06;100.00;98010.41;5076242;28;20599;-77
2024/04/05 07:53:15;;;;;;;3.63;1.40;;;;;;;16.19;100.00;98002.94;5076286;28;20231;-77
2024/04/05 07:55:40;;;;;;;2.50;1.30;;;;;;;16.28;100.00;98007.41;5078649;28;20207;-79
2024/04/05 07:58:09;;;;;;;3.50;1.23;;;;;;;16.36;100.00;98005.72;5083476;28;20214;-79
2024/04/05 08:00:35;;;;;;;1.40;1.20;;;;;;;16.52;98.54;97995.28;5079626;28;20235;-78
2024/04/05 08:03:03;;;;;;;3.87;1.33;;;;;;;16.69;98.24;98002.53;5075642;28;20203;-77
2024/04/05 08:05:28;;;;;;;2.77;1.57;;;;;;;16.69;97.90;97985.66;5075330;28;20622;-77
2024/04/05 08:07:56;;;;;;;4.93;2.30;;;;;;;16.60;97.26;97991.91;5075124;28;20237;-77
2024/04/05 08:10:21;;;;;;;4.97;1.50;;;;;;;16.57;94.00;97979.69;5075478;28;20227;-77
2024/04/05 08:12:48;;;;;;;2.70;1.43;;;;;;;16.61;95.15;97983.75;5076391;28;20300;-76
2024/04/05 08:15:15;;;;;;;2.63;1.30;;;;;;;16.51;92.73;97972.28;5074515;28;20208;-76
2024/04/05 08:17:42;;;;;;;2.03;1.10;;;;;;;16.39;92.49;97976.09;5074383;28;20574;-77
2024/04/05 08:20:07;;;;;;;2.00;1.30;;;;;;;16.49;93.29;97976.06;5073990;28;20233;-77
2024/04/05 08:22:34;;;;;;;5.70;1.77;;;;;;;16.55;93.27;97973.66;5075474;28;20549;-77
2024/04/05 08:25:00;;;;;;;2.23;1.30;;;;;;;16.60;94.10;97975.88;5078542;28;20215;-77
2024/04/05 08:27:28;;;;;;;2.37;1.80;;;;;;;16.64;94.03;97978.09;5075602;28;20210;-77
2024/04/05 08:29:53;;;;;;;3.00;1.30;;;;;;;16.69;92.75;97975.84;5075280;28;20273;-77
2024/04/05 08:32:22;;;;;;;2.63;1.40;;;;;;;16.87;93.67;97984.75;5075287;28;20227;-77
2024/04/05 08:34:48;;;;;;;2.80;1.23;;;;;;;17.09;94.30;97981.69;5075222;28;20213;-77
2024/04/05 08:37:14;;;;;;;2.13;1.30;;;;;;;17.21;91.17;97976.97;5075518;28;20215;-77
2024/04/05 08:39:40;;;;;;;1.97;1.60;;;;;;;17.33;88.78;97967.75;5074815;28;20231;-77
2024/04/05 08:42:12;;;;;;;3.13;1.20;;;;;;;17.57;89.34;97968.00;5073525;28;20213;-78
2024/04/05 08:44:38;;;;;;;3.07;1.53;;;;;;;17.78;87.90;97961.34;5075129;28;20211;-78
2024/04/05 08:47:05;;;;;;;2.53;1.23;;;;;;;17.90;85.14;97944.06;5075210;28;20252;-77
2024/04/05 08:49:33;;;;;;;3.53;1.57;;;;;;;17.88;85.89;97946.06;5075023;28;20227;-77
2024/04/05 08:52:00;;;;;;;2.30;1.60;;;;;;;17.98;87.27;97956.66;5074804;28;20321;-77
2024/04/05 08:54:28;;;;;;;2.20;1.50;;;;;;;18.12;88.23;97956.94;5075693;28;20207;-77
2024/04/05 08:56:56;;;;;;;3.33;1.77;;;;;;;18.07;87.91;97940.50;5076192;28;20200;-77
2024/04/05 08:59:22;;;;;;;4.07;2.20;;;;;;;18.11;84.90;97925.81;5075315;28;20557;-77
2024/04/05 09:01:51;;;;;;;3.57;1.33;;;;;;;18.09;82.85;97911.75;5076253;28;20204;-77
2024/04/05 09:04:17;;;;;;;2.53;1.50;;;;;;;18.07;82.16;97913.78;5075855;28;20665;-77
2024/04/05 09:06:44;;;;;;;2.77;1.47;;;;;;;18.15;82.39;97931.69;5076036;28;20259;-77
2024/04/05 09:09:10;;;;;;;1.90;1.30;;;;;;;18.23;80.97;97913.84;5075991;28;20207;-77
2024/04/05 09:11:37;;;;;;;2.07;1.33;;;;;;;18.33;80.72;97922.66;5077435;28;20685;-78
2024/04/05 09:14:03;;;;;;;2.07;1.47;;;;;;;18.38;79.02;97908.78;5075995;28;20223;-77
2024/04/05 09:16:31;;;;;;;2.57;1.27;;;;;;;18.49;78.70;97912.03;5081235;28;20632;-79
2024/04/05 09:19:02;;;;;;;3.13;1.43;;;;;;;18.58;78.86;97910.19;5082005;28;20621;-78
2024/04/05 09:21:29;;;;;;;2.90;1.43;;;;;;;18.75;78.93;97918.16;5075349;28;20728;-78
2024/04/05 09:23:57;;;;;;;1.83;1.10;;;;;;;18.91;78.23;97910.16;5076426;28;20208;-78
2024/04/05 09:26:24;;;;;;;1.50;1.30;;;;;;;18.98;76.27;97900.50;5074186;28;20262;-78
2024/04/05 09:28:57;;;;;;;1.67;1.10;;;;;;;19.08;74.97;97895.00;5073979;28;20208;-77
2024/04/05 09:31:24;;;;;;;3.57;1.43;;;;;;;19.20;74.36;97902.56;5073798;28;20238;-78
2024/04/05 09:33:50;;;;;;;2.13;1.43;;;;;;;19.42;71.89;97883.19;5074266;28;20277;-78
2024/04/05 09:36:18;;;;;;;3.77;1.37;;;;;;;19.56;72.77;97889.72;5074154;28;20208;-77
2024/04/05 09:38:44;;;;;;;1.97;1.20;;;;;;;19.52;70.90;97880.31;5074297;28;20254;-77
2024/04/05 09:41:14;;;;;;;4.13;1.23;;;;;;;19.61;73.95;97892.72;5073462;28;20223;-78
2024/04/05 09:43:42;;;;;;;1.97;1.40;;;;;;;19.76;73.74;97897.22;5074322;28;20254;-77
2024/04/05 09:46:11;;;;;;;1.67;0.93;;;;;;;19.89;70.31;97865.38;5074025;28;20216;-78
2024/04/05 09:48:36;;;;;;;2.10;1.20;;;;;;;19.93;72.04;97882.81;5074477;28;20218;-78
2024/04/05 09:51:13;;;;;;;1.40;1.00;;;;;;;19.97;68.68;97854.63;5073930;28;20239;-78
2024/04/05 09:53:45;;;;;;;1.83;1.20;;;;;;;20.04;70.38;97877.09;5073847;28;20707;-78
2024/04/05 09:56:18;;;;;;;2.30;1.10;;;;;;;20.08;68.49;97858.84;5077968;28;20200;-79
2024/04/05 09:58:46;;;;;;;1.57;0.90;;;;;;;20.21;67.26;97849.25;5078542;28;20561;-79
2024/04/05 10:01:14;;;;;;;2.10;1.27;;;;;;;20.34;67.31;97854.91;5075573;28;20226;-79
2024/04/05 10:03:41;;;;;;;1.37;1.00;;;;;;;20.37;66.83;97849.16;5075224;28;20574;-81
2024/04/05 10:06:14;;;;;;;2.23;1.10;;;;;;;20.37;66.39;97834.94;5075320;28;20221;-80
2024/04/05 10:08:40;;;;;;;2.80;1.10;;;;;;;20.49;66.05;97834.34;5058631;28;20207;-80
2024/04/05 10:11:15;;;;;;;1.40;1.10;;;;;;;20.71;66.63;97832.72;5077973;28;20231;-82
2024/04/05 10:13:41;;;;;;;1.90;1.30;;;;;;;20.71;63.47;97797.81;5076500;28;20227;-82
2024/04/05 10:16:09;;;;;;;2.27;1.10;;;;;;;20.75;61.28;97773.13;5074488;28;20233;-82
2024/04/05 10:18:41;;;;;;;1.30;0.90;;;;;;;20.82;60.01;97766.03;5076692;28;20208;-82
2024/04/05 10:21:09;;;;;;;1.27;0.90;;;;;;;20.92;60.62;97760.47;5076223;28;20237;-82
2024/04/05 10:23:35;;;;;;;1.80;0.90;;;;;;;20.99;60.29;97764.94;5076654;28;20208;-82
2024/04/05 10:26:02;;;;;;;1.13;1.00;;;;;;;21.05;60.80;97764.22;5076048;28;20578;-80
2024/04/05 10:28:29;;;;;;;0.73;0.60;;;;;;;21.17;57.52;97727.84;5076563;28;20695;-82
2024/04/05 10:31:00;;;;;;;2.10;0.83;;;;;;;21.25;56.15;97711.63;5075803;28;20318;-83
2024/04/05 10:33:26;;;;;;;1.63;1.03;;;;;;;21.33;54.65;97692.72;5075856;28;20233;-81
2024/04/05 10:35:58;;;;;;;1.50;0.90;;;;;;;21.50;54.48;97712.22;5075906;28;20543;-81
2024/04/05 10:38:23;;;;;;;1.47;0.60;;;;;;;21.60;53.30;97699.34;5074621;28;20222;-81
2024/04/05 10:40:58;;;;;;;2.07;0.90;;;;;;;21.67;53.91;97701.16;5075575;28;20234;-81
2024/04/05 10:43:23;;;;;;;1.83;0.90;;;;;;;21.92;51.11;97678.31;5075793;28;20304;-80
2024/04/05 10:45:54;;;;;;;1.57;0.80;;;;;;;21.98;51.38;97700.94;5075146;28;20218;-80
2024/04/05 10:48:21;;;;;;;1.63;0.90;;;;;;;21.92;51.66;97705.22;5076085;28;20634;-81
2024/04/05 10:50:48;;;;;;;1.10;0.70;;;;;;;21.87;50.93;97698.69;5075124;28;20254;-81
2024/04/05 10:53:16;;;;;;;0.73;0.70;;;;;;;21.72;49.96;97682.59;5075050;28;20263;-80
2024/04/05 10:55:43;;;;;;;3.03;1.07;;;;;;;21.64;50.07;97685.31;5075730;28;20641;-81
2024/04/05 10:58:10;;;;;;;2.47;0.87;;;;;;;21.60;50.13;97684.03;5075553;28;20571;-81
2024/04/05 11:00:37;;;;;;;1.87;0.80;;;;;;;21.60;50.79;97694.81;5075323;28;20269;-80
2024/04/05 11:03:06;;;;;;;0.73;0.60;;;;;;;21.57;49.92;97681.72;5074967;28;20530;-80
2024/04/05 11:05:33;;;;;;;1.10;1.00;;;;;;;21.57;50.32;97688.97;5056571;28;20203;-80
2024/04/05 11:07:59;;;;;;;1.60;0.90;;;;;;;21.62;50.28;97698.13;5074487;28;20211;-80
2024/04/05 11:10:30;;;;;;;1.63;0.80;;;;;;;21.68;48.74;97681.28;5074446;28;20256;-80
2024/04/05 11:12:56;;;;;;;2.03;0.70;;;;;;;21.83;48.98;97690.16;5074670;28;20615;-80
2024/04/05 11:15:23;;;;;;;1.23;0.70;;;;;;;21.97;49.43;97694.72;5074827;28;20298;-81
2024/04/05 11:17:58;;;;;;;0.77;0.70;;;;;;;22.25;50.27;97716.41;5075409;28;20549;-80
2024/04/05 11:20:29;;;;;;;2.20;0.80;;;;;;;22.41;48.45;97684.69;5074291;28;20307;-80
2024/04/05 11:22:55;;;;;;;1.10;0.70;;;;;;;22.49;48.48;97684.59;5075198;28;20554;-80
2024/04/05 11:25:21;;;;;;;1.90;0.80;;;;;;;22.49;49.32;97708.84;5074511;28;20203;-80